createdAt,value
2022-11-29T00:02:35.033Z,60.07
2022-11-29T00:07:41.235Z,70.87
2022-11-29T00:12:48.469Z,57.50
2022-11-29T00:17:54.431Z,54.30
2022-11-29T00:23:00.496Z,90.50
2022-11-29T00:28:05.696Z,112.20
2022-11-29T00:33:10.793Z,57.67
2022-11-29T00:38:16.172Z,108.40
2022-11-29T00:43:21.501Z,67.50
2022-11-29T00:48:27.716Z,41.53
2022-11-29T00:53:33.767Z,96.43
2022-11-29T00:58:38.761Z,57.23
2022-11-29T01:03:43.705Z,57.67
2022-11-29T01:08:50.496Z,60.93
2022-11-29T01:13:58.462Z,66.73
2022-11-29T01:19:03.869Z,61.13
2022-11-29T01:24:08.958Z,68.03
2022-11-29T01:29:14.869Z,59.88
2022-11-29T01:34:20.141Z,56.80
2022-11-29T01:39:25.072Z,55.67
2022-11-29T01:44:33.498Z,54.07
2022-11-29T01:49:44.641Z,52.17
2022-11-29T01:54:56.156Z,54.17
2022-11-29T02:00:04.651Z,51.73
2022-11-29T02:05:09.985Z,51.83
2022-11-29T02:10:16.151Z,50.53
2022-11-29T02:15:42.636Z,52.55
2022-11-29T02:21:20.346Z,54.03
2022-11-29T02:26:46.075Z,51.50
2022-11-29T02:32:17.544Z,50.80
2022-11-29T02:37:52.884Z,50.15
2022-11-29T02:43:23.238Z,50.27
2022-11-29T02:49:03.356Z,51.35
2022-11-29T02:54:26.360Z,50.43
2022-11-29T02:59:55.974Z,49.90
2022-11-29T03:05:06.692Z,50.17
2022-11-29T03:10:24.986Z,52.90
2022-11-29T03:15:39.882Z,50.53
2022-11-29T03:21:02.824Z,49.67
2022-11-29T03:26:10.979Z,49.73
2022-11-29T03:31:37.151Z,48.93
2022-11-29T03:37:06.206Z,51.70
2022-11-29T03:42:15.794Z,52.08
2022-11-29T03:47:23.988Z,52.40
2022-11-29T03:52:55.551Z,54.65
2022-11-29T03:58:12.462Z,53.30
2022-11-29T04:03:23.459Z,49.58
2022-11-29T04:08:34.481Z,49.38
2022-11-29T04:13:54.271Z,51.50
2022-11-29T04:19:18.734Z,54.00
2022-11-29T04:24:38.529Z,56.53
2022-11-29T04:29:49.405Z,49.20
2022-11-29T04:35:06.015Z,48.80
2022-11-29T04:40:20.881Z,49.58
2022-11-29T04:45:46.679Z,49.07
2022-11-29T04:51:00.397Z,50.93
2022-11-29T04:56:28.455Z,51.37
2022-11-29T05:01:58.873Z,48.30
2022-11-29T05:07:29.900Z,48.83
2022-11-29T05:12:40.940Z,49.87
2022-11-29T05:17:58.022Z,48.73
2022-11-29T05:23:11.882Z,49.75
2022-11-29T05:28:29.597Z,47.27
2022-11-29T05:34:00.389Z,49.27
2022-11-29T05:39:27.264Z,48.90
2022-11-29T05:44:48.384Z,49.25
2022-11-29T05:50:05.712Z,47.87
2022-11-29T05:55:30.257Z,47.80
2022-11-29T06:00:40.927Z,47.50
2022-11-29T06:05:59.201Z,47.60
2022-11-29T06:11:07.391Z,46.87
2022-11-29T06:16:45.284Z,46.53
2022-11-29T06:22:02.529Z,47.05
2022-11-29T06:27:32.367Z,47.25
2022-11-29T06:32:46.082Z,48.07
2022-11-29T06:37:56.274Z,46.53
2022-11-29T06:43:02.145Z,49.83
2022-11-29T06:48:09.877Z,46.47
2022-11-29T06:53:42.116Z,47.83
2022-11-29T06:58:50.626Z,47.67
2022-11-29T07:04:01.589Z,47.13
2022-11-29T07:09:15.841Z,47.93
2022-11-29T07:14:21.374Z,47.70
2022-11-29T07:19:38.372Z,48.17
2022-11-29T07:25:01.901Z,35.38
2022-11-29T07:30:21.745Z,47.63
2022-11-29T07:35:52.606Z,47.80
2022-11-29T07:41:15.977Z,48.55
2022-11-29T07:46:21.315Z,45.60
2022-11-29T07:51:26.834Z,46.30
2022-11-29T07:56:32.738Z,48.20
2022-11-29T08:01:39.623Z,47.93
2022-11-29T08:06:44.557Z,48.38
2022-11-29T08:11:50.520Z,48.33
2022-11-29T08:16:56.466Z,48.25
2022-11-29T08:22:01.769Z,50.97
2022-11-29T08:27:07.264Z,48.83
2022-11-29T08:32:13.818Z,50.95
2022-11-29T08:37:19.474Z,51.50
2022-11-29T08:42:24.874Z,52.30
2022-11-29T08:47:38.835Z,54.93
2022-11-29T08:53:06.589Z,55.60
2022-11-29T08:58:14.895Z,53.10
2022-11-29T09:03:38.314Z,52.93
2022-11-29T09:08:44.257Z,49.77
2022-11-29T09:13:52.108Z,50.23
2022-11-29T09:18:57.707Z,49.20
2022-11-29T09:24:06.821Z,49.00
2022-11-29T09:29:12.316Z,46.63
2022-11-29T09:34:20.505Z,48.70
2022-11-29T09:39:26.239Z,47.77
2022-11-29T09:44:43.500Z,50.83
2022-11-29T09:49:52.506Z,48.17
2022-11-29T09:55:10.355Z,51.63
2022-11-29T10:00:19.785Z,51.80
2022-11-29T10:05:50.277Z,51.13
2022-11-29T10:10:58.368Z,50.77
2022-11-29T10:16:10.533Z,49.47
2022-11-29T10:21:22.004Z,48.77
2022-11-29T10:26:34.808Z,49.00
2022-11-29T10:31:40.576Z,50.83
2022-11-29T10:36:51.859Z,49.57
2022-11-29T10:42:00.440Z,49.60
2022-11-29T10:47:10.797Z,50.50
2022-11-29T10:52:24.003Z,51.97
2022-11-29T10:57:29.266Z,52.05
2022-11-29T11:02:35.995Z,49.80
2022-11-29T11:07:42.012Z,50.65
2022-11-29T11:12:50.384Z,51.17
2022-11-29T11:18:01.856Z,51.47
2022-11-29T11:23:27.644Z,51.13
2022-11-29T11:28:38.582Z,51.07
2022-11-29T11:33:47.770Z,51.17
2022-11-29T11:38:58.328Z,50.47
2022-11-29T11:44:10.441Z,50.20
2022-11-29T11:49:13.231Z,50.80
2022-11-29T11:54:19.189Z,51.97
2022-11-29T11:59:27.410Z,50.50
2022-11-29T12:04:35.863Z,52.43
2022-11-29T12:09:53.607Z,52.47
2022-11-29T12:15:10.601Z,51.90
2022-11-29T12:20:28.200Z,50.67
2022-11-29T12:25:36.768Z,51.50
2022-11-29T12:30:50.360Z,50.97
2022-11-29T12:36:01.003Z,51.37
2022-11-29T12:41:30.136Z,49.57
2022-11-29T12:46:38.563Z,51.23
2022-11-29T12:51:52.683Z,49.47
2022-11-29T12:57:12.392Z,53.83
2022-11-29T13:02:35.404Z,51.47
2022-11-29T13:08:00.513Z,53.07
2022-11-29T13:13:43.627Z,52.00
2022-11-29T13:19:02.034Z,52.35
2022-11-29T13:24:10.243Z,50.10
2022-11-29T13:29:17.995Z,52.83
2022-11-29T13:34:26.114Z,52.30
2022-11-29T13:39:52.164Z,50.83
2022-11-29T13:45:09.806Z,53.13
2022-11-29T13:50:39.779Z,53.80
2022-11-29T13:55:50.369Z,56.27
2022-11-29T14:01:04.946Z,52.03
2022-11-29T14:06:21.907Z,51.53
2022-11-29T14:11:39.900Z,82.57
2022-11-29T14:16:48.052Z,69.70
2022-11-29T14:22:07.691Z,52.43
2022-11-29T14:27:17.040Z,51.42
2022-11-29T14:32:46.704Z,51.33
2022-11-29T14:38:06.616Z,51.93
2022-11-29T14:43:35.752Z,50.93
2022-11-29T14:48:47.487Z,50.83
2022-11-29T14:54:12.298Z,51.20
2022-11-29T14:59:43.377Z,51.98
2022-11-29T15:04:51.706Z,53.23
2022-11-29T15:09:59.599Z,52.77
2022-11-29T15:15:10.658Z,54.00
2022-11-29T15:20:24.674Z,54.73
2022-11-29T15:25:32.860Z,54.53
2022-11-29T15:30:40.177Z,53.83
2022-11-29T15:35:51.775Z,53.87
2022-11-29T15:40:58.395Z,54.20
2022-11-29T15:46:07.997Z,52.83
2022-11-29T15:51:22.827Z,52.05
2022-11-29T15:56:49.295Z,53.73
2022-11-29T16:01:57.979Z,53.07
2022-11-29T16:07:06.247Z,53.13
2022-11-29T16:12:14.520Z,52.30
2022-11-29T16:17:21.607Z,53.27
2022-11-29T16:22:26.486Z,52.67
2022-11-29T16:27:34.633Z,54.10
2022-11-29T16:32:44.511Z,51.33
2022-11-29T16:37:49.856Z,54.00
2022-11-29T16:43:06.922Z,54.07
2022-11-29T16:48:28.663Z,52.77
2022-11-29T16:53:36.839Z,51.87
2022-11-29T16:59:21.081Z,55.83
2022-11-29T17:03:49.764Z,56.17
2022-11-29T17:08:58.800Z,55.33
2022-11-29T17:14:04.295Z,53.53
2022-11-29T17:19:13.923Z,59.07
2022-11-29T17:24:22.382Z,66.60
2022-11-29T17:29:27.831Z,55.50
2022-11-29T17:34:35.143Z,58.60
2022-11-29T17:39:43.044Z,91.73
2022-11-29T17:44:49.587Z,102.53
2022-11-29T17:49:55.321Z,69.93
2022-11-29T17:55:01.689Z,84.10
2022-11-29T18:00:09.424Z,79.30
2022-11-29T18:05:16.431Z,66.70
2022-11-29T18:10:22.555Z,62.45
2022-11-29T18:15:27.638Z,78.47
2022-11-29T18:20:32.724Z,66.20
2022-11-29T18:25:39.896Z,59.47
2022-11-29T18:30:50.090Z,59.87
2022-11-29T18:35:55.307Z,82.62
2022-11-29T18:41:00.962Z,71.87
2022-11-29T18:46:11.089Z,77.20
2022-11-29T18:51:18.775Z,85.93
2022-11-29T18:56:27.474Z,101.12
2022-11-29T19:01:36.721Z,111.40
2022-11-29T19:06:44.459Z,98.97
2022-11-29T19:11:50.707Z,102.02
2022-11-29T19:16:55.942Z,118.57
2022-11-29T19:22:01.348Z,114.27
2022-11-29T19:27:07.089Z,109.03
2022-11-29T19:32:14.184Z,105.27
2022-11-29T19:37:19.546Z,108.57
2022-11-29T19:42:26.186Z,101.27
2022-11-29T19:47:31.589Z,104.27
2022-11-29T19:52:37.904Z,106.10
2022-11-29T19:57:43.465Z,97.00
2022-11-29T20:02:49.022Z,96.47
2022-11-29T20:07:55.707Z,101.35
2022-11-29T20:13:02.715Z,103.63
2022-11-29T20:18:07.789Z,124.43
2022-11-29T20:23:15.089Z,115.85
2022-11-29T20:28:20.482Z,114.87
2022-11-29T20:33:27.340Z,119.10
2022-11-29T20:38:36.141Z,120.60
2022-11-29T20:43:53.093Z,120.23
2022-11-29T20:54:05.819Z,117.97
2022-11-29T20:59:11.113Z,118.70
2022-11-29T21:04:22.876Z,105.97
2022-11-29T21:09:23.953Z,97.73
2022-11-29T21:14:29.142Z,79.67
2022-11-29T21:19:34.180Z,85.73
2022-11-29T21:24:48.500Z,94.77
2022-11-29T21:29:54.462Z,75.77
2022-11-29T21:35:00.102Z,82.67
2022-11-29T21:40:05.834Z,98.30
2022-11-29T21:45:15.284Z,107.90
2022-11-29T21:50:18.196Z,108.00
2022-11-29T21:55:30.017Z,103.60
2022-11-29T22:00:35.969Z,100.38
2022-11-29T22:05:37.098Z,83.00
2022-11-29T22:10:42.373Z,90.23
2022-11-29T22:15:47.728Z,88.47
2022-11-29T22:20:53.432Z,81.13
2022-11-29T22:26:04.410Z,86.07
2022-11-29T22:31:12.729Z,80.20
2022-11-29T22:36:17.946Z,83.37
2022-11-29T22:41:22.813Z,90.70
2022-11-29T22:46:29.221Z,86.87
2022-11-29T22:51:37.237Z,77.32
2022-11-29T22:56:44.095Z,90.03
2022-11-29T23:01:49.144Z,64.03
2022-11-29T23:06:54.007Z,78.53
2022-11-29T23:11:58.944Z,88.57
2022-11-29T23:17:03.843Z,88.40
2022-11-29T23:22:11.029Z,121.90
2022-11-29T23:27:16.487Z,72.27
2022-11-29T23:32:21.848Z,71.60
2022-11-29T23:37:27.152Z,55.90
2022-11-29T23:42:32.763Z,84.17
2022-11-29T23:47:38.229Z,70.90
2022-11-29T23:52:43.883Z,70.00
2022-11-29T23:57:49.970Z,83.77
